Hunter, Kansas
Current Conditions -  °F | °C
As of 4:53 PM on Tuesday 25 Nov 2014 (Local Time) from KRSL Reporting Station
Few Clouds Few Clouds  
Wind Chill: 43°   Ceiling: Unl
Heat Index: 48°   Visibility: 10mi
Dew Point: 18°   Wind: 12mph
Humidity: 30%   Direction: 190°S
Pressure: 29.91"   Gusts: NA
Location:  39.23°N, 98.4°W
Report Text: KRSL 252253Z AUTO 19010KT 10SM FEW120 09/M08 A2991 RMK AO2 SLP142 T00891078
Loading
Personal Weather Stations






























Interactive Weather Map New forecast layout! Learn more

10-Day Weather Forecast

Advertisements
Track Severe Weather on mobile